sensor_id;sensor_type;location;lat;lon;timestamp;P1;durP1;ratioP1;P2;durP2;ratioP2
18526;SDS011;9393;42.158;24.748;2023-04-03T00:00:22;4.47;;;2.00;;
18526;SDS011;9393;42.158;24.748;2023-04-03T00:03:26;4.30;;;1.70;;
18526;SDS011;9393;42.158;24.748;2023-04-03T00:06:29;2.43;;;1.60;;
18526;SDS011;9393;42.158;24.748;2023-04-03T00:09:35;4.33;;;1.63;;
18526;SDS011;9393;42.158;24.748;2023-04-03T00:12:39;5.23;;;1.53;;
18526;SDS011;9393;42.158;24.748;2023-04-03T00:15:42;3.67;;;1.70;;
18526;SDS011;9393;42.158;24.748;2023-04-03T00:18:46;2.77;;;1.40;;
18526;SDS011;9393;42.158;24.748;2023-04-03T00:21:50;2.60;;;1.43;;
18526;SDS011;9393;42.158;24.748;2023-04-03T00:24:56;6.17;;;1.60;;
18526;SDS011;9393;42.158;24.748;2023-04-03T00:28:00;2.17;;;1.43;;
18526;SDS011;9393;42.158;24.748;2023-04-03T00:31:04;2.23;;;1.40;;
18526;SDS011;9393;42.158;24.748;2023-04-03T00:34:09;2.27;;;1.40;;
18526;SDS011;9393;42.158;24.748;2023-04-03T00:37:13;3.17;;;1.60;;
18526;SDS011;9393;42.158;24.748;2023-04-03T00:40:18;1.83;;;1.30;;
18526;SDS011;9393;42.158;24.748;2023-04-03T00:43:24;2.97;;;1.27;;
18526;SDS011;9393;42.158;24.748;2023-04-03T00:46:29;1.53;;;1.27;;
18526;SDS011;9393;42.158;24.748;2023-04-03T00:49:33;2.97;;;1.43;;
18526;SDS011;9393;42.158;24.748;2023-04-03T00:52:37;3.50;;;1.43;;
18526;SDS011;9393;42.158;24.748;2023-04-03T00:55:43;2.77;;;1.50;;
18526;SDS011;9393;42.158;24.748;2023-04-03T00:58:50;2.53;;;1.47;;
18526;SDS011;9393;42.158;24.748;2023-04-03T01:01:57;2.40;;;1.50;;
18526;SDS011;9393;42.158;24.748;2023-04-03T01:05:02;3.13;;;1.50;;
18526;SDS011;9393;42.158;24.748;2023-04-03T01:08:07;2.33;;;1.40;;
18526;SDS011;9393;42.158;24.748;2023-04-03T01:11:12;2.53;;;1.67;;
18526;SDS011;9393;42.158;24.748;2023-04-03T01:14:17;2.03;;;1.50;;
18526;SDS011;9393;42.158;24.748;2023-04-03T01:17:26;3.50;;;1.83;;
18526;SDS011;9393;42.158;24.748;2023-04-03T01:24:25;2.40;;;1.63;;
18526;SDS011;9393;42.158;24.748;2023-04-03T01:27:39;3.07;;;1.87;;
18526;SDS011;9393;42.158;24.748;2023-04-03T01:30:43;3.33;;;1.77;;
18526;SDS011;9393;42.158;24.748;2023-04-03T01:33:52;2.47;;;1.77;;
18526;SDS011;9393;42.158;24.748;2023-04-03T01:36:57;3.77;;;2.10;;
18526;SDS011;9393;42.158;24.748;2023-04-03T01:40:01;2.27;;;1.83;;
18526;SDS011;9393;42.158;24.748;2023-04-03T01:43:06;4.50;;;1.93;;
18526;SDS011;9393;42.158;24.748;2023-04-03T01:46:10;2.80;;;1.73;;
18526;SDS011;9393;42.158;24.748;2023-04-03T01:49:15;3.27;;;1.70;;
18526;SDS011;9393;42.158;24.748;2023-04-03T01:52:19;4.53;;;2.13;;
18526;SDS011;9393;42.158;24.748;2023-04-03T01:55:25;4.27;;;2.17;;
18526;SDS011;9393;42.158;24.748;2023-04-03T01:58:28;3.77;;;2.40;;
18526;SDS011;9393;42.158;24.748;2023-04-03T02:01:32;3.60;;;2.30;;
18526;SDS011;9393;42.158;24.748;2023-04-03T02:04:38;6.20;;;2.67;;
18526;SDS011;9393;42.158;24.748;2023-04-03T02:07:41;5.30;;;2.63;;
18526;SDS011;9393;42.158;24.748;2023-04-03T02:10:46;4.57;;;2.37;;
18526;SDS011;9393;42.158;24.748;2023-04-03T02:13:51;4.47;;;2.20;;
18526;SDS011;9393;42.158;24.748;2023-04-03T02:16:54;3.97;;;2.53;;
18526;SDS011;9393;42.158;24.748;2023-04-03T02:20:00;3.47;;;2.13;;
18526;SDS011;9393;42.158;24.748;2023-04-03T02:23:05;3.53;;;2.00;;
18526;SDS011;9393;42.158;24.748;2023-04-03T02:26:09;3.23;;;2.23;;
18526;SDS011;9393;42.158;24.748;2023-04-03T02:29:14;3.60;;;2.03;;
18526;SDS011;9393;42.158;24.748;2023-04-03T02:32:18;2.27;;;1.90;;
18526;SDS011;9393;42.158;24.748;2023-04-03T02:35:24;3.20;;;2.00;;
18526;SDS011;9393;42.158;24.748;2023-04-03T02:38:30;3.57;;;2.03;;
18526;SDS011;9393;42.158;24.748;2023-04-03T02:41:34;4.37;;;2.30;;
18526;SDS011;9393;42.158;24.748;2023-04-03T02:44:43;5.10;;;1.90;;
18526;SDS011;9393;42.158;24.748;2023-04-03T02:47:47;5.77;;;2.43;;
18526;SDS011;9393;42.158;24.748;2023-04-03T02:50:52;3.10;;;1.47;;
18526;SDS011;9393;42.158;24.748;2023-04-03T02:53:56;3.83;;;1.90;;
18526;SDS011;9393;42.158;24.748;2023-04-03T02:57:04;3.17;;;1.60;;
18526;SDS011;9393;42.158;24.748;2023-04-03T03:00:11;3.53;;;1.80;;
18526;SDS011;9393;42.158;24.748;2023-04-03T03:03:16;4.07;;;1.97;;
18526;SDS011;9393;42.158;24.748;2023-04-03T03:06:21;4.83;;;2.27;;
18526;SDS011;9393;42.158;24.748;2023-04-03T03:09:25;2.03;;;1.83;;
18526;SDS011;9393;42.158;24.748;2023-04-03T03:12:28;4.47;;;2.07;;
18526;SDS011;9393;42.158;24.748;2023-04-03T03:15:34;5.57;;;2.23;;
18526;SDS011;9393;42.158;24.748;2023-04-03T03:18:37;2.77;;;2.00;;
18526;SDS011;9393;42.158;24.748;2023-04-03T03:21:43;3.33;;;2.10;;
18526;SDS011;9393;42.158;24.748;2023-04-03T03:24:46;4.57;;;2.07;;
18526;SDS011;9393;42.158;24.748;2023-04-03T03:27:50;3.73;;;2.33;;
18526;SDS011;9393;42.158;24.748;2023-04-03T03:30:54;3.73;;;2.47;;
18526;SDS011;9393;42.158;24.748;2023-04-03T03:33:58;3.60;;;2.13;;
18526;SDS011;9393;42.158;24.748;2023-04-03T03:37:03;3.37;;;1.80;;
18526;SDS011;9393;42.158;24.748;2023-04-03T03:40:08;3.93;;;2.20;;
18526;SDS011;9393;42.158;24.748;2023-04-03T03:43:15;3.13;;;2.50;;
18526;SDS011;9393;42.158;24.748;2023-04-03T03:46:20;3.07;;;2.10;;
18526;SDS011;9393;42.158;24.748;2023-04-03T03:49:24;7.60;;;2.23;;
18526;SDS011;9393;42.158;24.748;2023-04-03T03:52:29;3.60;;;2.50;;
18526;SDS011;9393;42.158;24.748;2023-04-03T03:55:33;6.17;;;2.70;;
18526;SDS011;9393;42.158;24.748;2023-04-03T03:58:37;5.80;;;2.87;;
18526;SDS011;9393;42.158;24.748;2023-04-03T04:01:42;8.80;;;3.30;;
18526;SDS011;9393;42.158;24.748;2023-04-03T04:04:46;8.23;;;3.70;;
18526;SDS011;9393;42.158;24.748;2023-04-03T04:07:53;15.93;;;7.00;;
18526;SDS011;9393;42.158;24.748;2023-04-03T04:10:58;17.37;;;8.30;;
18526;SDS011;9393;42.158;24.748;2023-04-03T04:14:03;15.37;;;6.77;;
18526;SDS011;9393;42.158;24.748;2023-04-03T04:17:08;10.53;;;5.23;;
18526;SDS011;9393;42.158;24.748;2023-04-03T04:20:12;17.20;;;5.83;;
18526;SDS011;9393;42.158;24.748;2023-04-03T04:23:17;11.70;;;5.70;;
18526;SDS011;9393;42.158;24.748;2023-04-03T04:26:23;9.77;;;4.43;;
18526;SDS011;9393;42.158;24.748;2023-04-03T04:29:27;6.07;;;4.13;;
18526;SDS011;9393;42.158;24.748;2023-04-03T04:32:31;8.23;;;3.90;;
18526;SDS011;9393;42.158;24.748;2023-04-03T04:35:35;5.93;;;3.57;;
18526;SDS011;9393;42.158;24.748;2023-04-03T04:38:41;6.73;;;3.53;;
18526;SDS011;9393;42.158;24.748;2023-04-03T04:41:45;6.90;;;3.87;;
18526;SDS011;9393;42.158;24.748;2023-04-03T04:44:49;7.80;;;4.17;;
18526;SDS011;9393;42.158;24.748;2023-04-03T04:47:54;10.67;;;4.33;;
18526;SDS011;9393;42.158;24.748;2023-04-03T04:50:59;7.37;;;4.37;;
18526;SDS011;9393;42.158;24.748;2023-04-03T04:54:05;9.47;;;4.60;;
18526;SDS011;9393;42.158;24.748;2023-04-03T04:57:09;12.67;;;5.23;;
18526;SDS011;9393;42.158;24.748;2023-04-03T05:00:14;16.90;;;6.50;;
18526;SDS011;9393;42.158;24.748;2023-04-03T05:03:19;24.43;;;8.33;;
18526;SDS011;9393;42.158;24.748;2023-04-03T05:06:23;23.13;;;7.23;;
18526;SDS011;9393;42.158;24.748;2023-04-03T05:09:30;16.53;;;7.10;;
18526;SDS011;9393;42.158;24.748;2023-04-03T05:12:34;14.57;;;6.53;;
18526;SDS011;9393;42.158;24.748;2023-04-03T05:15:39;16.37;;;7.83;;
18526;SDS011;9393;42.158;24.748;2023-04-03T05:18:43;15.93;;;7.00;;
18526;SDS011;9393;42.158;24.748;2023-04-03T05:21:52;19.00;;;6.93;;
18526;SDS011;9393;42.158;24.748;2023-04-03T05:24:58;23.90;;;7.07;;
18526;SDS011;9393;42.158;24.748;2023-04-03T05:28:02;13.87;;;6.43;;
18526;SDS011;9393;42.158;24.748;2023-04-03T05:31:06;8.93;;;6.20;;
18526;SDS011;9393;42.158;24.748;2023-04-03T05:34:11;12.77;;;6.30;;
18526;SDS011;9393;42.158;24.748;2023-04-03T05:37:15;14.40;;;6.70;;
18526;SDS011;9393;42.158;24.748;2023-04-03T05:40:21;15.03;;;6.53;;
18526;SDS011;9393;42.158;24.748;2023-04-03T05:43:28;11.13;;;5.83;;
18526;SDS011;9393;42.158;24.748;2023-04-03T05:46:32;14.70;;;5.73;;
18526;SDS011;9393;42.158;24.748;2023-04-03T05:49:39;12.70;;;5.70;;
18526;SDS011;9393;42.158;24.748;2023-04-03T05:52:45;13.60;;;6.53;;
18526;SDS011;9393;42.158;24.748;2023-04-03T05:55:55;12.23;;;7.27;;
18526;SDS011;9393;42.158;24.748;2023-04-03T05:59:00;19.20;;;6.30;;
18526;SDS011;9393;42.158;24.748;2023-04-03T06:02:04;13.43;;;6.27;;
18526;SDS011;9393;42.158;24.748;2023-04-03T06:05:10;16.37;;;6.93;;
18526;SDS011;9393;42.158;24.748;2023-04-03T06:08:15;10.53;;;6.50;;
18526;SDS011;9393;42.158;24.748;2023-04-03T06:11:20;15.77;;;7.80;;
18526;SDS011;9393;42.158;24.748;2023-04-03T06:14:24;18.37;;;7.07;;
18526;SDS011;9393;42.158;24.748;2023-04-03T06:17:28;16.20;;;7.70;;
18526;SDS011;9393;42.158;24.748;2023-04-03T06:20:32;23.20;;;8.20;;
18526;SDS011;9393;42.158;24.748;2023-04-03T06:23:37;17.90;;;7.27;;
18526;SDS011;9393;42.158;24.748;2023-04-03T06:26:43;25.23;;;7.27;;
18526;SDS011;9393;42.158;24.748;2023-04-03T06:29:48;21.90;;;10.57;;
18526;SDS011;9393;42.158;24.748;2023-04-03T06:32:51;20.57;;;7.63;;
18526;SDS011;9393;42.158;24.748;2023-04-03T06:35:56;21.97;;;7.40;;
18526;SDS011;9393;42.158;24.748;2023-04-03T06:39:01;22.73;;;7.07;;
18526;SDS011;9393;42.158;24.748;2023-04-03T06:42:06;25.60;;;6.43;;
18526;SDS011;9393;42.158;24.748;2023-04-03T06:45:19;24.40;;;5.70;;
18526;SDS011;9393;42.158;24.748;2023-04-03T06:48:23;25.33;;;6.40;;
18526;SDS011;9393;42.158;24.748;2023-04-03T06:51:28;17.70;;;6.10;;
18526;SDS011;9393;42.158;24.748;2023-04-03T06:54:32;15.00;;;5.83;;
18526;SDS011;9393;42.158;24.748;2023-04-03T06:57:38;8.53;;;5.03;;
18526;SDS011;9393;42.158;24.748;2023-04-03T07:00:41;11.30;;;5.97;;
18526;SDS011;9393;42.158;24.748;2023-04-03T07:03:45;8.47;;;4.77;;
18526;SDS011;9393;42.158;24.748;2023-04-03T07:06:49;9.63;;;4.90;;
18526;SDS011;9393;42.158;24.748;2023-04-03T07:09:54;13.27;;;5.77;;
18526;SDS011;9393;42.158;24.748;2023-04-03T07:12:59;8.80;;;4.57;;
18526;SDS011;9393;42.158;24.748;2023-04-03T07:16:03;11.10;;;4.40;;
18526;SDS011;9393;42.158;24.748;2023-04-03T07:19:08;9.87;;;4.30;;
18526;SDS011;9393;42.158;24.748;2023-04-03T07:22:12;7.63;;;3.10;;
18526;SDS011;9393;42.158;24.748;2023-04-03T07:25:16;5.83;;;3.37;;
18526;SDS011;9393;42.158;24.748;2023-04-03T07:28:21;7.50;;;3.07;;
18526;SDS011;9393;42.158;24.748;2023-04-03T07:31:26;3.37;;;2.50;;
18526;SDS011;9393;42.158;24.748;2023-04-03T07:34:30;10.03;;;2.70;;
18526;SDS011;9393;42.158;24.748;2023-04-03T07:37:34;4.83;;;2.90;;
18526;SDS011;9393;42.158;24.748;2023-04-03T07:40:38;6.00;;;2.80;;
18526;SDS011;9393;42.158;24.748;2023-04-03T07:43:44;4.90;;;3.03;;
18526;SDS011;9393;42.158;24.748;2023-04-03T07:46:48;4.40;;;2.60;;
18526;SDS011;9393;42.158;24.748;2023-04-03T07:49:52;9.37;;;3.33;;
18526;SDS011;9393;42.158;24.748;2023-04-03T07:52:56;10.37;;;3.57;;
18526;SDS011;9393;42.158;24.748;2023-04-03T07:56:00;5.97;;;3.20;;
18526;SDS011;9393;42.158;24.748;2023-04-03T07:59:06;6.80;;;2.90;;
18526;SDS011;9393;42.158;24.748;2023-04-03T08:02:10;7.70;;;2.93;;
18526;SDS011;9393;42.158;24.748;2023-04-03T08:05:14;14.33;;;3.53;;
18526;SDS011;9393;42.158;24.748;2023-04-03T08:08:19;7.77;;;3.60;;
18526;SDS011;9393;42.158;24.748;2023-04-03T08:11:24;9.07;;;3.90;;
18526;SDS011;9393;42.158;24.748;2023-04-03T08:14:31;6.67;;;3.20;;
18526;SDS011;9393;42.158;24.748;2023-04-03T08:17:36;7.47;;;2.90;;
18526;SDS011;9393;42.158;24.748;2023-04-03T08:20:40;5.97;;;2.90;;
18526;SDS011;9393;42.158;24.748;2023-04-03T08:23:44;4.20;;;2.63;;
18526;SDS011;9393;42.158;24.748;2023-04-03T08:26:51;6.03;;;3.60;;
18526;SDS011;9393;42.158;24.748;2023-04-03T08:29:56;7.63;;;3.77;;
18526;SDS011;9393;42.158;24.748;2023-04-03T08:33:00;10.90;;;4.63;;
18526;SDS011;9393;42.158;24.748;2023-04-03T08:36:05;12.00;;;5.13;;
18526;SDS011;9393;42.158;24.748;2023-04-03T08:39:09;15.40;;;6.00;;
18526;SDS011;9393;42.158;24.748;2023-04-03T08:42:15;15.07;;;7.20;;
18526;SDS011;9393;42.158;24.748;2023-04-03T08:45:31;14.60;;;6.63;;
18526;SDS011;9393;42.158;24.748;2023-04-03T08:48:45;17.90;;;6.23;;
18526;SDS011;9393;42.158;24.748;2023-04-03T08:51:51;11.83;;;5.77;;
18526;SDS011;9393;42.158;24.748;2023-04-03T08:54:55;10.07;;;4.80;;
18526;SDS011;9393;42.158;24.748;2023-04-03T08:58:04;8.53;;;3.70;;
18526;SDS011;9393;42.158;24.748;2023-04-03T09:01:14;6.03;;;3.50;;
18526;SDS011;9393;42.158;24.748;2023-04-03T09:04:23;10.77;;;3.17;;
18526;SDS011;9393;42.158;24.748;2023-04-03T09:07:33;9.50;;;2.90;;
18526;SDS011;9393;42.158;24.748;2023-04-03T09:10:42;4.33;;;2.87;;
18526;SDS011;9393;42.158;24.748;2023-04-03T09:13:48;4.80;;;3.00;;
18526;SDS011;9393;42.158;24.748;2023-04-03T09:16:59;9.60;;;3.13;;
18526;SDS011;9393;42.158;24.748;2023-04-03T09:20:09;7.27;;;3.40;;
18526;SDS011;9393;42.158;24.748;2023-04-03T09:23:23;8.17;;;3.50;;
18526;SDS011;9393;42.158;24.748;2023-04-03T09:26:31;10.60;;;4.10;;
18526;SDS011;9393;42.158;24.748;2023-04-03T09:29:40;8.30;;;3.40;;
18526;SDS011;9393;42.158;24.748;2023-04-03T09:32:49;7.00;;;3.13;;
18526;SDS011;9393;42.158;24.748;2023-04-03T09:35:54;4.43;;;2.33;;
18526;SDS011;9393;42.158;24.748;2023-04-03T09:39:02;3.73;;;2.67;;
18526;SDS011;9393;42.158;24.748;2023-04-03T09:42:14;5.27;;;2.73;;
18526;SDS011;9393;42.158;24.748;2023-04-03T09:45:24;16.20;;;7.40;;
18526;SDS011;9393;42.158;24.748;2023-04-03T09:48:31;7.77;;;3.10;;
18526;SDS011;9393;42.158;24.748;2023-04-03T09:51:34;4.87;;;2.67;;
18526;SDS011;9393;42.158;24.748;2023-04-03T09:54:39;3.57;;;2.70;;
18526;SDS011;9393;42.158;24.748;2023-04-03T09:57:43;5.27;;;2.60;;
18526;SDS011;9393;42.158;24.748;2023-04-03T10:00:53;5.13;;;2.50;;
18526;SDS011;9393;42.158;24.748;2023-04-03T10:04:07;4.67;;;2.43;;
18526;SDS011;9393;42.158;24.748;2023-04-03T10:07:31;6.93;;;2.90;;
18526;SDS011;9393;42.158;24.748;2023-04-03T10:10:38;7.93;;;3.97;;
18526;SDS011;9393;42.158;24.748;2023-04-03T10:13:55;9.23;;;3.43;;
18526;SDS011;9393;42.158;24.748;2023-04-03T10:20:32;6.70;;;3.20;;
18526;SDS011;9393;42.158;24.748;2023-04-03T10:23:41;5.07;;;3.70;;
18526;SDS011;9393;42.158;24.748;2023-04-03T10:26:51;5.37;;;2.90;;
18526;SDS011;9393;42.158;24.748;2023-04-03T10:30:02;13.97;;;5.30;;
18526;SDS011;9393;42.158;24.748;2023-04-03T10:36:46;10.17;;;4.40;;
18526;SDS011;9393;42.158;24.748;2023-04-03T10:39:57;8.23;;;4.90;;
18526;SDS011;9393;42.158;24.748;2023-04-03T10:43:07;11.07;;;6.50;;
18526;SDS011;9393;42.158;24.748;2023-04-03T10:46:15;15.57;;;7.50;;
18526;SDS011;9393;42.158;24.748;2023-04-03T10:49:29;14.70;;;8.13;;
18526;SDS011;9393;42.158;24.748;2023-04-03T10:53:03;10.87;;;6.33;;
18526;SDS011;9393;42.158;24.748;2023-04-03T10:56:15;7.87;;;4.07;;
18526;SDS011;9393;42.158;24.748;2023-04-03T10:59:25;9.80;;;5.17;;
18526;SDS011;9393;42.158;24.748;2023-04-03T11:02:35;7.67;;;5.30;;
18526;SDS011;9393;42.158;24.748;2023-04-03T11:05:46;15.33;;;7.37;;
18526;SDS011;9393;42.158;24.748;2023-04-03T11:08:55;8.17;;;4.50;;
18526;SDS011;9393;42.158;24.748;2023-04-03T11:12:06;6.20;;;4.07;;
18526;SDS011;9393;42.158;24.748;2023-04-03T11:15:17;12.00;;;5.50;;
18526;SDS011;9393;42.158;24.748;2023-04-03T11:18:25;5.17;;;3.00;;
18526;SDS011;9393;42.158;24.748;2023-04-03T11:21:37;9.13;;;4.50;;
18526;SDS011;9393;42.158;24.748;2023-04-03T11:24:46;7.50;;;4.30;;
18526;SDS011;9393;42.158;24.748;2023-04-03T11:28:01;8.40;;;3.60;;
18526;SDS011;9393;42.158;24.748;2023-04-03T11:31:14;6.70;;;3.50;;
18526;SDS011;9393;42.158;24.748;2023-04-03T11:34:30;4.20;;;2.87;;
18526;SDS011;9393;42.158;24.748;2023-04-03T11:37:43;4.67;;;3.03;;
18526;SDS011;9393;42.158;24.748;2023-04-03T11:40:51;4.37;;;3.10;;
18526;SDS011;9393;42.158;24.748;2023-04-03T11:43:57;3.67;;;3.00;;
18526;SDS011;9393;42.158;24.748;2023-04-03T11:47:03;7.83;;;3.57;;
18526;SDS011;9393;42.158;24.748;2023-04-03T11:50:08;8.73;;;3.70;;
18526;SDS011;9393;42.158;24.748;2023-04-03T11:53:46;6.73;;;4.33;;
18526;SDS011;9393;42.158;24.748;2023-04-03T11:56:52;7.13;;;4.63;;
18526;SDS011;9393;42.158;24.748;2023-04-03T11:59:56;8.03;;;6.20;;
18526;SDS011;9393;42.158;24.748;2023-04-03T12:03:00;11.20;;;7.47;;
18526;SDS011;9393;42.158;24.748;2023-04-03T12:09:58;8.73;;;5.50;;
18526;SDS011;9393;42.158;24.748;2023-04-03T12:13:13;8.43;;;5.37;;
18526;SDS011;9393;42.158;24.748;2023-04-03T12:16:21;7.80;;;5.63;;
18526;SDS011;9393;42.158;24.748;2023-04-03T12:19:31;7.70;;;4.57;;
18526;SDS011;9393;42.158;24.748;2023-04-03T12:22:39;9.17;;;4.40;;
18526;SDS011;9393;42.158;24.748;2023-04-03T12:26:26;7.00;;;4.27;;
18526;SDS011;9393;42.158;24.748;2023-04-03T12:29:52;5.97;;;4.40;;
18526;SDS011;9393;42.158;24.748;2023-04-03T12:33:12;5.67;;;3.97;;
18526;SDS011;9393;42.158;24.748;2023-04-03T12:36:30;7.47;;;4.07;;
18526;SDS011;9393;42.158;24.748;2023-04-03T12:39:51;9.07;;;4.60;;
18526;SDS011;9393;42.158;24.748;2023-04-03T12:46:43;5.60;;;4.33;;
18526;SDS011;9393;42.158;24.748;2023-04-03T12:49:49;6.73;;;4.13;;
18526;SDS011;9393;42.158;24.748;2023-04-03T12:52:57;8.10;;;4.00;;
18526;SDS011;9393;42.158;24.748;2023-04-03T12:56:21;6.23;;;3.63;;
18526;SDS011;9393;42.158;24.748;2023-04-03T12:59:27;5.53;;;4.20;;
18526;SDS011;9393;42.158;24.748;2023-04-03T13:02:31;8.97;;;4.73;;
18526;SDS011;9393;42.158;24.748;2023-04-03T13:05:36;7.33;;;4.13;;
18526;SDS011;9393;42.158;24.748;2023-04-03T13:08:48;7.77;;;4.50;;
18526;SDS011;9393;42.158;24.748;2023-04-03T13:11:57;8.40;;;5.17;;
18526;SDS011;9393;42.158;24.748;2023-04-03T13:15:11;11.77;;;5.10;;
18526;SDS011;9393;42.158;24.748;2023-04-03T13:18:24;9.13;;;5.57;;
18526;SDS011;9393;42.158;24.748;2023-04-03T13:21:30;14.90;;;7.17;;
18526;SDS011;9393;42.158;24.748;2023-04-03T13:24:37;8.00;;;6.20;;
18526;SDS011;9393;42.158;24.748;2023-04-03T13:27:43;7.90;;;5.30;;
18526;SDS011;9393;42.158;24.748;2023-04-03T13:30:55;10.10;;;5.77;;
18526;SDS011;9393;42.158;24.748;2023-04-03T13:34:05;7.83;;;4.93;;
18526;SDS011;9393;42.158;24.748;2023-04-03T13:37:21;9.60;;;5.37;;
18526;SDS011;9393;42.158;24.748;2023-04-03T13:40:26;9.63;;;6.30;;
18526;SDS011;9393;42.158;24.748;2023-04-03T13:43:43;9.53;;;6.30;;
18526;SDS011;9393;42.158;24.748;2023-04-03T13:46:47;12.43;;;6.80;;
18526;SDS011;9393;42.158;24.748;2023-04-03T13:49:59;8.60;;;6.33;;
18526;SDS011;9393;42.158;24.748;2023-04-03T13:53:09;11.03;;;7.40;;
18526;SDS011;9393;42.158;24.748;2023-04-03T13:56:18;9.07;;;7.20;;
18526;SDS011;9393;42.158;24.748;2023-04-03T13:59:29;11.13;;;8.63;;
18526;SDS011;9393;42.158;24.748;2023-04-03T14:02:34;11.13;;;8.27;;
18526;SDS011;9393;42.158;24.748;2023-04-03T14:05:42;14.87;;;9.77;;
18526;SDS011;9393;42.158;24.748;2023-04-03T14:08:47;12.80;;;9.90;;
18526;SDS011;9393;42.158;24.748;2023-04-03T14:11:52;12.73;;;9.03;;
18526;SDS011;9393;42.158;24.748;2023-04-03T14:14:59;12.30;;;7.80;;
18526;SDS011;9393;42.158;24.748;2023-04-03T14:18:04;16.10;;;7.90;;
18526;SDS011;9393;42.158;24.748;2023-04-03T14:21:09;11.37;;;6.80;;
18526;SDS011;9393;42.158;24.748;2023-04-03T14:24:15;11.40;;;7.53;;
18526;SDS011;9393;42.158;24.748;2023-04-03T14:27:20;9.27;;;6.80;;
18526;SDS011;9393;42.158;24.748;2023-04-03T14:30:27;9.97;;;6.40;;
18526;SDS011;9393;42.158;24.748;2023-04-03T14:33:34;10.20;;;7.07;;
18526;SDS011;9393;42.158;24.748;2023-04-03T14:36:38;8.30;;;6.70;;
18526;SDS011;9393;42.158;24.748;2023-04-03T14:39:44;10.33;;;7.93;;
18526;SDS011;9393;42.158;24.748;2023-04-03T14:42:48;13.67;;;8.20;;
18526;SDS011;9393;42.158;24.748;2023-04-03T14:45:53;13.03;;;8.87;;
18526;SDS011;9393;42.158;24.748;2023-04-03T14:48:57;12.93;;;8.90;;
18526;SDS011;9393;42.158;24.748;2023-04-03T14:52:02;14.30;;;8.93;;
18526;SDS011;9393;42.158;24.748;2023-04-03T14:55:06;15.50;;;10.07;;
18526;SDS011;9393;42.158;24.748;2023-04-03T14:58:12;12.80;;;9.17;;
18526;SDS011;9393;42.158;24.748;2023-04-03T15:01:19;15.90;;;9.33;;
18526;SDS011;9393;42.158;24.748;2023-04-03T15:04:23;15.77;;;10.17;;
18526;SDS011;9393;42.158;24.748;2023-04-03T15:07:29;29.37;;;19.23;;
18526;SDS011;9393;42.158;24.748;2023-04-03T15:10:34;12.03;;;9.50;;
18526;SDS011;9393;42.158;24.748;2023-04-03T15:13:38;14.63;;;9.43;;
18526;SDS011;9393;42.158;24.748;2023-04-03T15:16:44;14.73;;;8.57;;
18526;SDS011;9393;42.158;24.748;2023-04-03T15:19:48;13.97;;;10.20;;
18526;SDS011;9393;42.158;24.748;2023-04-03T15:22:52;15.77;;;9.63;;
18526;SDS011;9393;42.158;24.748;2023-04-03T15:25:58;13.23;;;9.80;;
18526;SDS011;9393;42.158;24.748;2023-04-03T15:29:02;17.57;;;10.63;;
18526;SDS011;9393;42.158;24.748;2023-04-03T15:32:08;21.97;;;14.07;;
18526;SDS011;9393;42.158;24.748;2023-04-03T15:35:12;19.37;;;12.50;;
18526;SDS011;9393;42.158;24.748;2023-04-03T15:38:16;17.53;;;10.07;;
18526;SDS011;9393;42.158;24.748;2023-04-03T15:41:20;16.20;;;9.13;;
18526;SDS011;9393;42.158;24.748;2023-04-03T15:44:24;19.67;;;11.10;;
18526;SDS011;9393;42.158;24.748;2023-04-03T15:47:29;15.37;;;9.63;;
18526;SDS011;9393;42.158;24.748;2023-04-03T15:50:33;19.93;;;9.73;;
18526;SDS011;9393;42.158;24.748;2023-04-03T15:53:38;91.00;;;30.17;;
18526;SDS011;9393;42.158;24.748;2023-04-03T15:56:42;60.80;;;25.37;;
18526;SDS011;9393;42.158;24.748;2023-04-03T15:59:45;48.03;;;25.10;;
18526;SDS011;9393;42.158;24.748;2023-04-03T16:02:51;23.60;;;12.37;;
18526;SDS011;9393;42.158;24.748;2023-04-03T16:05:59;28.13;;;16.80;;
18526;SDS011;9393;42.158;24.748;2023-04-03T16:09:04;19.23;;;12.13;;
18526;SDS011;9393;42.158;24.748;2023-04-03T16:12:08;19.77;;;13.27;;
18526;SDS011;9393;42.158;24.748;2023-04-03T16:15:12;16.13;;;11.23;;
18526;SDS011;9393;42.158;24.748;2023-04-03T16:18:17;14.57;;;10.90;;
18526;SDS011;9393;42.158;24.748;2023-04-03T16:21:21;21.83;;;12.53;;
18526;SDS011;9393;42.158;24.748;2023-04-03T16:24:26;20.07;;;14.03;;
18526;SDS011;9393;42.158;24.748;2023-04-03T16:27:30;18.00;;;10.57;;
18526;SDS011;9393;42.158;24.748;2023-04-03T16:30:34;14.87;;;9.73;;
18526;SDS011;9393;42.158;24.748;2023-04-03T16:33:39;20.30;;;11.20;;
18526;SDS011;9393;42.158;24.748;2023-04-03T16:36:43;15.10;;;7.37;;
18526;SDS011;9393;42.158;24.748;2023-04-03T16:39:47;17.77;;;10.37;;
18526;SDS011;9393;42.158;24.748;2023-04-03T16:42:51;11.60;;;7.57;;
18526;SDS011;9393;42.158;24.748;2023-04-03T16:45:55;15.87;;;8.33;;
18526;SDS011;9393;42.158;24.748;2023-04-03T16:49:00;8.23;;;5.80;;
18526;SDS011;9393;42.158;24.748;2023-04-03T16:52:04;16.37;;;7.33;;
18526;SDS011;9393;42.158;24.748;2023-04-03T16:55:08;12.40;;;5.73;;
18526;SDS011;9393;42.158;24.748;2023-04-03T16:58:12;10.53;;;5.33;;
18526;SDS011;9393;42.158;24.748;2023-04-03T17:01:17;12.03;;;6.63;;
18526;SDS011;9393;42.158;24.748;2023-04-03T17:04:23;11.03;;;6.30;;
18526;SDS011;9393;42.158;24.748;2023-04-03T17:07:27;10.77;;;6.83;;
18526;SDS011;9393;42.158;24.748;2023-04-03T17:10:31;13.30;;;7.47;;
18526;SDS011;9393;42.158;24.748;2023-04-03T17:13:37;14.30;;;7.03;;
18526;SDS011;9393;42.158;24.748;2023-04-03T17:16:41;12.47;;;7.40;;
18526;SDS011;9393;42.158;24.748;2023-04-03T17:19:46;12.97;;;8.47;;
18526;SDS011;9393;42.158;24.748;2023-04-03T17:22:50;14.30;;;8.33;;
18526;SDS011;9393;42.158;24.748;2023-04-03T17:25:54;15.70;;;8.17;;
18526;SDS011;9393;42.158;24.748;2023-04-03T17:28:58;11.17;;;6.37;;
18526;SDS011;9393;42.158;24.748;2023-04-03T17:32:02;9.97;;;5.70;;
18526;SDS011;9393;42.158;24.748;2023-04-03T17:35:08;11.77;;;6.47;;
18526;SDS011;9393;42.158;24.748;2023-04-03T17:38:12;6.83;;;4.73;;
18526;SDS011;9393;42.158;24.748;2023-04-03T17:41:16;5.77;;;4.73;;
18526;SDS011;9393;42.158;24.748;2023-04-03T17:44:20;5.80;;;4.03;;
18526;SDS011;9393;42.158;24.748;2023-04-03T17:47:24;6.83;;;4.17;;
18526;SDS011;9393;42.158;24.748;2023-04-03T17:50:30;6.93;;;3.97;;
18526;SDS011;9393;42.158;24.748;2023-04-03T17:53:33;7.70;;;3.97;;
18526;SDS011;9393;42.158;24.748;2023-04-03T17:56:37;5.97;;;4.07;;
18526;SDS011;9393;42.158;24.748;2023-04-03T17:59:44;6.87;;;3.80;;
18526;SDS011;9393;42.158;24.748;2023-04-03T18:02:50;8.47;;;4.50;;
18526;SDS011;9393;42.158;24.748;2023-04-03T18:05:56;7.23;;;4.83;;
18526;SDS011;9393;42.158;24.748;2023-04-03T18:09:01;4.90;;;4.20;;
18526;SDS011;9393;42.158;24.748;2023-04-03T18:12:08;5.13;;;4.27;;
18526;SDS011;9393;42.158;24.748;2023-04-03T18:15:12;7.53;;;5.27;;
18526;SDS011;9393;42.158;24.748;2023-04-03T18:18:16;10.00;;;5.50;;
18526;SDS011;9393;42.158;24.748;2023-04-03T18:21:21;9.27;;;5.80;;
18526;SDS011;9393;42.158;24.748;2023-04-03T18:24:25;9.50;;;5.53;;
18526;SDS011;9393;42.158;24.748;2023-04-03T18:27:29;11.20;;;7.07;;
18526;SDS011;9393;42.158;24.748;2023-04-03T18:30:33;12.03;;;7.17;;
18526;SDS011;9393;42.158;24.748;2023-04-03T18:33:37;9.57;;;6.70;;
18526;SDS011;9393;42.158;24.748;2023-04-03T18:36:43;10.37;;;8.17;;
18526;SDS011;9393;42.158;24.748;2023-04-03T18:39:46;9.97;;;7.23;;
18526;SDS011;9393;42.158;24.748;2023-04-03T18:42:50;10.37;;;7.60;;
18526;SDS011;9393;42.158;24.748;2023-04-03T18:45:54;10.83;;;7.33;;
18526;SDS011;9393;42.158;24.748;2023-04-03T18:48:58;11.97;;;7.87;;
18526;SDS011;9393;42.158;24.748;2023-04-03T18:52:04;10.73;;;7.87;;